createdAt,value
2018-03-03T00:01:03.507Z,100377.52
2018-03-03T00:06:06.084Z,100377.25
2018-03-03T00:11:08.653Z,100385.77
2018-03-03T00:16:11.192Z,100380.37
2018-03-03T00:21:13.737Z,100386.48
2018-03-03T00:26:16.299Z,100389.94
2018-03-03T00:31:18.828Z,100383.61
2018-03-03T00:36:21.370Z,100384.59
2018-03-03T00:41:23.905Z,100396.09
2018-03-03T00:46:26.435Z,100398.19
2018-03-03T00:51:28.963Z,100408.38
2018-03-03T00:56:31.495Z,100409.69
2018-03-03T01:01:35.185Z,100405.95
2018-03-03T01:06:37.715Z,100404.39
2018-03-03T01:11:40.307Z,100407.96
2018-03-03T01:16:42.853Z,100412.57
2018-03-03T01:21:45.390Z,100416.77
2018-03-03T01:26:47.968Z,100405.29
2018-03-03T01:31:50.506Z,100408.03
2018-03-03T01:36:53.040Z,100398.78
2018-03-03T01:41:55.593Z,100401.89
2018-03-03T01:46:58.142Z,100399.58
2018-03-03T01:52:00.840Z,100391.98
2018-03-03T01:57:03.383Z,100398.43
2018-03-03T02:02:05.968Z,100400.02
2018-03-03T02:07:08.530Z,100401.86
2018-03-03T02:12:11.076Z,100393.52
2018-03-03T02:17:13.610Z,100394.02
2018-03-03T02:22:16.148Z,100382.36
2018-03-03T02:27:18.789Z,100386.39
2018-03-03T02:32:21.372Z,100385.08
2018-03-03T02:37:23.963Z,100384.81
2018-03-03T02:42:26.505Z,100385.89
2018-03-03T02:47:29.070Z,100376.38
2018-03-03T02:52:31.600Z,100370.88
2018-03-03T02:57:34.148Z,100363.19
2018-03-03T03:02:36.708Z,100367.92
2018-03-03T03:07:39.257Z,100379.92
2018-03-03T03:12:41.804Z,100371.83
2018-03-03T03:17:44.349Z,100375.25
2018-03-03T03:22:46.894Z,100378.31
2018-03-03T03:27:49.425Z,100384.89
2018-03-03T03:32:51.978Z,100385.00
2018-03-03T03:37:54.507Z,100384.03
2018-03-03T03:42:57.041Z,100380.00
2018-03-03T03:47:59.597Z,100373.38
2018-03-03T03:53:02.144Z,100384.11
2018-03-03T03:58:04.754Z,100382.19
2018-03-03T04:03:07.290Z,100386.28
2018-03-03T04:08:09.812Z,100389.52
2018-03-03T04:13:12.342Z,100385.25
2018-03-03T04:18:14.886Z,100381.36
2018-03-03T04:23:17.423Z,100387.61
2018-03-03T04:28:19.964Z,100392.57
2018-03-03T04:33:22.485Z,100388.14
2018-03-03T04:38:25.022Z,100396.65
2018-03-03T04:43:27.555Z,100392.10
2018-03-03T04:48:30.090Z,100389.64
2018-03-03T04:53:32.622Z,100382.58
2018-03-03T04:58:41.185Z,100383.00
2018-03-03T05:03:47.538Z,100385.55
2018-03-03T05:08:50.072Z,100373.98
2018-03-03T05:14:02.510Z,100378.17
2018-03-03T05:25:02.967Z,100366.81
2018-03-03T05:30:11.182Z,100374.86
2018-03-03T05:41:14.660Z,100368.96
2018-03-03T05:46:22.817Z,100375.30
2018-03-03T05:51:36.130Z,100376.88
2018-03-03T06:02:31.603Z,100366.78
2018-03-03T06:07:39.766Z,100373.92
2018-03-03T06:12:42.300Z,100375.98
2018-03-03T06:17:44.825Z,100370.68
2018-03-03T06:22:47.382Z,100367.28
2018-03-03T06:27:49.915Z,100356.30
2018-03-03T06:32:52.470Z,100368.66
2018-03-03T06:37:55.056Z,100361.66
2018-03-03T06:42:57.606Z,100367.19
2018-03-03T06:48:00.161Z,100370.17
2018-03-03T06:53:02.691Z,100356.67
2018-03-03T06:58:05.215Z,100355.27
2018-03-03T07:03:07.771Z,100369.00
2018-03-03T07:08:10.315Z,100374.98
2018-03-03T07:13:12.855Z,100368.25
2018-03-03T07:18:15.392Z,100358.08
2018-03-03T07:23:17.955Z,100366.71
2018-03-03T07:28:20.545Z,100361.61
2018-03-03T07:33:23.058Z,100360.85
2018-03-03T07:38:25.633Z,100359.06
2018-03-03T07:43:28.180Z,100358.00
2018-03-03T07:48:30.723Z,100355.84
2018-03-03T07:53:33.277Z,100358.91
2018-03-03T07:58:47.599Z,100359.36
2018-03-03T08:03:50.134Z,100360.47
2018-03-03T08:08:52.668Z,100358.61
2018-03-03T08:13:55.186Z,100350.09
2018-03-03T08:18:57.891Z,100346.53
2018-03-03T08:24:00.430Z,100347.52
2018-03-03T08:29:02.965Z,100341.73
2018-03-03T08:34:05.495Z,100344.36
2018-03-03T08:39:08.015Z,100351.25
2018-03-03T08:44:10.550Z,100344.45
2018-03-03T08:49:13.082Z,100349.55
2018-03-03T08:54:15.623Z,100357.23
2018-03-03T08:59:18.162Z,100349.63
2018-03-03T09:04:20.703Z,100342.98
2018-03-03T09:09:23.247Z,100341.31
2018-03-03T09:14:25.850Z,100340.91
2018-03-03T09:19:28.444Z,100329.24
2018-03-03T09:24:30.975Z,100329.12
2018-03-03T09:29:33.634Z,100330.88
2018-03-03T09:34:36.162Z,100331.08
2018-03-03T09:39:38.958Z,100330.72
2018-03-03T09:44:41.510Z,100330.69
2018-03-03T09:49:44.204Z,100325.56
2018-03-03T09:54:46.732Z,100327.52
2018-03-03T09:59:49.250Z,100314.14
2018-03-03T10:04:51.795Z,100332.45
2018-03-03T10:09:54.337Z,100324.32
2018-03-03T10:14:56.865Z,100324.45
2018-03-03T10:19:59.392Z,100313.58
2018-03-03T10:25:01.967Z,100305.64
2018-03-03T10:30:04.548Z,100316.75
2018-03-03T10:35:07.085Z,100307.30
2018-03-03T10:40:09.723Z,100303.80
2018-03-03T10:45:12.294Z,100311.42
2018-03-03T10:50:14.822Z,100303.05
2018-03-03T10:55:17.346Z,100300.37
2018-03-03T11:00:25.427Z,100294.97
2018-03-03T11:05:27.950Z,100292.11
2018-03-03T11:10:30.509Z,100281.81
2018-03-03T11:15:33.037Z,100292.19
2018-03-03T11:20:35.604Z,100275.30
2018-03-03T11:25:38.128Z,100288.07
2018-03-03T11:30:40.776Z,100285.52
2018-03-03T11:35:43.299Z,100290.48
2018-03-03T11:40:45.839Z,100291.67
2018-03-03T11:45:48.355Z,100285.11
2018-03-03T11:50:50.862Z,100279.16
2018-03-03T11:55:53.380Z,100273.42
2018-03-03T12:00:55.913Z,100278.28
2018-03-03T12:05:58.457Z,100276.74
2018-03-03T12:11:00.987Z,100289.77
2018-03-03T12:16:03.544Z,100296.38
2018-03-03T12:21:06.089Z,100288.14
2018-03-03T12:26:08.695Z,100286.95
2018-03-03T12:31:11.259Z,100274.19
2018-03-03T12:36:13.807Z,100273.00
2018-03-03T12:41:17.038Z,100271.84
2018-03-03T12:46:19.584Z,100255.88
2018-03-03T12:51:22.112Z,100265.59
2018-03-03T12:56:24.632Z,100258.53
2018-03-03T13:01:27.179Z,100252.27
2018-03-03T13:06:29.716Z,100254.63
2018-03-03T13:11:32.251Z,100240.19
2018-03-03T13:16:34.801Z,100239.47
2018-03-03T13:21:37.326Z,100245.14
2018-03-03T13:26:39.863Z,100232.89
2018-03-03T13:31:42.399Z,100231.52
2018-03-03T13:36:44.924Z,100229.61
2018-03-03T13:41:47.468Z,100231.63
2018-03-03T13:46:50.015Z,100230.36
2018-03-03T13:51:52.581Z,100214.19
2018-03-03T13:56:55.099Z,100207.80
2018-03-03T14:01:57.633Z,100205.30
2018-03-03T14:07:00.154Z,100216.83
2018-03-03T14:12:03.310Z,100207.91
2018-03-03T14:17:05.859Z,100201.73
2018-03-03T14:22:08.378Z,100200.56
2018-03-03T14:27:10.898Z,100203.48
2018-03-03T14:32:13.430Z,100203.77
2018-03-03T14:37:15.989Z,100190.70
2018-03-03T14:42:18.795Z,100212.44
2018-03-03T14:47:21.370Z,100213.98
2018-03-03T14:52:23.931Z,100210.88
2018-03-03T14:57:26.515Z,100208.33
2018-03-03T15:02:29.078Z,100219.19
2018-03-03T15:07:31.766Z,100201.93
2018-03-03T15:12:34.304Z,100204.61
2018-03-03T15:17:37.193Z,100204.18
2018-03-03T15:22:39.739Z,100212.30
2018-03-03T15:27:42.300Z,100212.82
2018-03-03T15:32:44.834Z,100213.11
2018-03-03T15:37:47.411Z,100220.75
2018-03-03T15:42:49.965Z,100228.27
2018-03-03T15:47:52.496Z,100232.51
2018-03-03T15:52:55.077Z,100234.94
2018-03-03T15:57:57.650Z,100234.69
2018-03-03T16:03:00.215Z,100243.66
2018-03-03T16:08:02.907Z,100243.41
2018-03-03T16:13:05.440Z,100249.05
2018-03-03T16:18:07.984Z,100255.27
2018-03-03T16:23:10.540Z,100263.50
2018-03-03T16:28:13.080Z,100263.65
2018-03-03T16:33:15.611Z,100271.84
2018-03-03T16:38:18.155Z,100276.16
2018-03-03T16:43:20.732Z,100273.64
2018-03-03T16:48:23.278Z,100278.13
2018-03-03T16:53:25.832Z,100283.07
2018-03-03T16:58:28.421Z,100287.66
2018-03-03T17:03:34.022Z,100284.66
2018-03-03T17:08:36.929Z,100285.70
2018-03-03T17:13:39.508Z,100283.05
2018-03-03T17:18:42.102Z,100285.96
2018-03-03T17:23:44.640Z,100291.27
2018-03-03T17:28:47.255Z,100289.82
2018-03-03T17:33:49.821Z,100290.24
2018-03-03T17:38:52.345Z,100295.34
2018-03-03T17:43:54.876Z,100293.30
2018-03-03T17:48:57.546Z,100295.52
2018-03-03T17:54:00.147Z,100300.43
2018-03-03T17:59:02.762Z,100306.23
2018-03-03T18:04:05.309Z,100313.88
2018-03-03T18:09:07.841Z,100320.86
2018-03-03T18:14:10.382Z,100321.30
2018-03-03T18:19:12.920Z,100336.14
2018-03-03T18:24:27.331Z,100338.66
2018-03-03T18:29:30.123Z,100339.81
2018-03-03T18:34:32.762Z,100334.81
2018-03-03T18:39:35.922Z,100347.30
2018-03-03T18:44:38.516Z,100342.89
2018-03-03T18:49:41.230Z,100341.59
2018-03-03T18:54:43.810Z,100342.52
2018-03-03T18:59:46.372Z,100342.58
2018-03-03T19:04:48.907Z,100338.23
2018-03-03T19:09:51.521Z,100339.59
2018-03-03T19:14:54.060Z,100341.88
2018-03-03T19:19:58.276Z,100340.94
2018-03-03T19:25:00.848Z,100344.02
2018-03-03T19:30:04.091Z,100346.36
2018-03-03T19:35:07.194Z,100351.12
2018-03-03T19:40:09.779Z,100360.27
2018-03-03T19:45:12.317Z,100361.19
2018-03-03T19:50:15.883Z,100358.47
2018-03-03T19:55:18.445Z,100366.07
2018-03-03T20:00:21.000Z,100368.92
2018-03-03T20:05:23.594Z,100371.61
2018-03-03T20:10:26.211Z,100373.97
2018-03-03T20:15:28.915Z,100368.79
2018-03-03T20:20:31.506Z,100373.80
2018-03-03T20:25:34.045Z,100380.28
2018-03-03T20:30:36.766Z,100383.80
2018-03-03T20:35:39.316Z,100390.56
2018-03-03T20:40:41.865Z,100393.89
2018-03-03T20:45:44.428Z,100402.02
2018-03-03T20:50:47.029Z,100397.52
2018-03-03T20:55:49.867Z,100408.48
2018-03-03T21:00:53.004Z,100415.18
2018-03-03T21:05:56.345Z,100413.13
2018-03-03T21:10:59.046Z,100411.85
2018-03-03T21:16:01.839Z,100408.91
2018-03-03T21:21:17.206Z,100418.75
2018-03-03T21:26:19.912Z,100415.73
2018-03-03T21:31:22.531Z,100420.30
2018-03-03T21:36:25.142Z,100419.34
2018-03-03T21:41:27.724Z,100418.73
2018-03-03T21:46:30.251Z,100423.63
2018-03-03T21:51:32.852Z,100427.05
2018-03-03T21:56:35.389Z,100432.35
2018-03-03T22:01:38.050Z,100439.95
2018-03-03T22:06:40.652Z,100430.73
2018-03-03T22:11:43.237Z,100434.53
2018-03-03T22:16:45.869Z,100431.50
2018-03-03T22:21:48.465Z,100434.73
2018-03-03T22:26:51.013Z,100436.80
2018-03-03T22:31:53.552Z,100436.28
2018-03-03T22:36:56.092Z,100431.27
2018-03-03T22:41:58.645Z,100425.34
2018-03-03T22:47:01.174Z,100433.30
2018-03-03T22:52:03.736Z,100439.61
2018-03-03T22:57:06.464Z,100435.36
2018-03-03T23:02:09.245Z,100428.72
2018-03-03T23:07:11.897Z,100422.72
2018-03-03T23:12:14.536Z,100429.45
2018-03-03T23:17:17.112Z,100417.77
2018-03-03T23:22:19.671Z,100408.70
2018-03-03T23:27:22.232Z,100425.05
2018-03-03T23:32:24.783Z,100429.87
2018-03-03T23:37:27.322Z,100432.47
2018-03-03T23:42:29.888Z,100449.92
2018-03-03T23:47:32.687Z,100444.42
2018-03-03T23:52:35.310Z,100435.13
2018-03-03T23:57:38.175Z,100438.91
